Weather at Daytona Beach International Airport

Public forecast

Using degrees Fahrenheit for public forecast. Weather courtesy of forecast.io.

Current aviation weather report (METAR) for Daytona Beach International Airport

Retrieved 2020/09/23 07:53 UTC (1 hour ago):

KDAB 230753Z 08003KT 10SM BKN060 23/18 A3002 RMK AO2 SLP163 T02280183

Aviation forecast (TAF) for Daytona Beach International Airport

Retrieved 2020/09/23 06:36 UTC (2 hours ago):

TAF KDAB 230532Z 2306/2406 05008KT P6SM SCT040 SCT250 FM231400 08009KT P6SM SCT035 SCT060 BKN250 FM232000 09012KT P6SM SCT040 BKN250 FM240100 10005KT P6SM SCT040 BKN250